Terminal Aerodrome Forecast
Issued by NWS Cleveland, OH

Home | Current Version | Previous Version | Graphics & Text | Print | Product List | Glossary On
Versions: 1 2 3 4 5 6 7 8 9 10 11 12 13 14 15 16 17 18 19 20 21 22 23 24 25 26 27
083
FTUS41 KCLE 281737 AAD
TAFCLE
TAF AMD
KCLE 281737Z 2818/2924 18010KT P6SM VCTS SCT035CB BKN050
      TEMPO 2822/2901 VRB20G35KT 3SM TSRA BKN025CB OVC040
     FM290400 23008KT P6SM BKN035 OVC080
     FM290700 25010KT P6SM SCT035 BKN080
     FM291600 25012KT P6SM SCT040=

USA.gov is the U.S. government's official web portal to all federal, state and local government web resources and services.